createdAt,value
2018-11-14T00:00:43.695Z,100.0
2018-11-14T00:01:44.360Z,100.0
2018-11-14T00:02:45.026Z,100.0
2018-11-14T00:03:45.691Z,100.0
2018-11-14T00:04:46.355Z,100.0
2018-11-14T00:05:47.018Z,100.0
2018-11-14T00:06:47.688Z,100.0
2018-11-14T00:07:48.347Z,100.0
2018-11-14T00:08:49.049Z,100.0
2018-11-14T00:09:49.715Z,100.0
2018-11-14T00:10:50.382Z,100.0
2018-11-14T00:11:51.041Z,100.0
2018-11-14T00:12:51.707Z,100.0
2018-11-14T00:13:52.372Z,100.0
2018-11-14T00:14:53.077Z,100.0
2018-11-14T00:15:53.738Z,100.0
2018-11-14T00:16:54.404Z,100.0
2018-11-14T00:17:55.109Z,100.0
2018-11-14T00:18:55.773Z,100.0
2018-11-14T00:19:56.440Z,100.0
2018-11-14T00:20:57.101Z,100.0
2018-11-14T00:21:57.767Z,100.0
2018-11-14T00:22:58.434Z,100.0
2018-11-14T00:23:59.097Z,100.0
2018-11-14T00:24:59.761Z,100.0
2018-11-14T00:26:00.426Z,100.0
2018-11-14T00:27:01.094Z,100.0
2018-11-14T00:28:02.158Z,100.0
2018-11-14T00:29:02.418Z,100.0
2018-11-14T00:30:03.087Z,100.0
2018-11-14T00:31:03.749Z,100.0
2018-11-14T00:32:04.412Z,100.0
2018-11-14T00:33:05.100Z,100.0
2018-11-14T00:34:05.772Z,100.0
2018-11-14T00:35:06.478Z,100.0
2018-11-14T00:36:07.149Z,100.0
2018-11-14T00:37:07.807Z,100.0
2018-11-14T00:38:08.515Z,100.0
2018-11-14T00:39:09.138Z,100.0
2018-11-14T00:40:09.799Z,100.0
2018-11-14T00:41:10.463Z,100.0
2018-11-14T00:42:11.138Z,100.0
2018-11-14T00:43:11.793Z,100.0
2018-11-14T00:44:12.458Z,100.0
2018-11-14T00:45:13.124Z,100.0
2018-11-14T00:46:13.794Z,100.0
2018-11-14T00:47:14.458Z,100.0
2018-11-14T00:48:15.124Z,100.0
2018-11-14T00:49:15.790Z,100.0
2018-11-14T00:50:16.452Z,100.0
2018-11-14T00:51:17.115Z,100.0
2018-11-14T00:52:17.780Z,100.0
2018-11-14T00:53:18.445Z,100.0
2018-11-14T00:54:19.108Z,100.0
2018-11-14T00:55:19.780Z,100.0
2018-11-14T00:56:20.475Z,100.0
2018-11-14T00:57:21.140Z,100.0
2018-11-14T00:58:21.805Z,100.0
2018-11-14T00:59:22.469Z,100.0
2018-11-14T01:00:23.131Z,100.0
2018-11-14T01:01:23.838Z,100.0
2018-11-14T01:02:24.458Z,100.0
2018-11-14T01:03:25.128Z,100.0
2018-11-14T01:04:25.787Z,100.0
2018-11-14T01:05:26.451Z,100.0
2018-11-14T01:06:27.115Z,100.0
2018-11-14T01:07:27.780Z,100.0
2018-11-14T01:08:28.444Z,100.0
2018-11-14T01:09:29.114Z,100.0
2018-11-14T01:10:29.769Z,100.0
2018-11-14T01:11:30.435Z,100.0
2018-11-14T01:12:31.099Z,100.0
2018-11-14T01:13:31.765Z,100.0
2018-11-14T01:14:32.429Z,100.0
2018-11-14T01:15:33.097Z,100.0
2018-11-14T01:16:33.799Z,100.0
2018-11-14T01:17:34.464Z,100.0
2018-11-14T01:18:35.128Z,100.0
2018-11-14T01:19:35.792Z,100.0
2018-11-14T01:20:36.465Z,100.0
2018-11-14T01:25:18.657Z,100.0
2018-11-14T01:26:19.324Z,100.0
2018-11-14T01:27:20.025Z,100.0
2018-11-14T01:28:20.727Z,100.0
2018-11-14T01:29:21.429Z,100.0
2018-11-14T01:30:22.096Z,100.0
2018-11-14T01:31:22.795Z,100.0
2018-11-14T01:32:23.457Z,100.0
2018-11-14T01:33:24.124Z,100.0
2018-11-14T01:34:24.784Z,100.0
2018-11-14T01:35:25.450Z,100.0
2018-11-14T01:36:26.113Z,100.0
2018-11-14T01:37:26.776Z,100.0
2018-11-14T01:38:27.477Z,100.0
2018-11-14T01:39:28.187Z,100.0
2018-11-14T01:40:28.841Z,100.0
2018-11-14T01:41:29.506Z,100.0
2018-11-14T01:42:30.170Z,100.0
2018-11-14T01:43:30.833Z,100.0
2018-11-14T01:44:31.494Z,100.0
2018-11-14T01:45:32.158Z,100.0
2018-11-14T01:46:32.819Z,100.0
2018-11-14T01:47:33.482Z,100.0
2018-11-14T01:48:34.146Z,100.0
2018-11-14T01:49:34.821Z,100.0
2018-11-14T01:50:35.473Z,100.0
2018-11-14T01:51:36.149Z,100.0
2018-11-14T01:52:36.800Z,100.0
2018-11-14T01:53:37.479Z,100.0
2018-11-14T01:54:38.166Z,100.0
2018-11-14T01:55:38.828Z,100.0
2018-11-14T01:56:39.496Z,100.0
2018-11-14T01:57:40.154Z,100.0
2018-11-14T01:58:40.815Z,100.0
2018-11-14T01:59:41.480Z,100.0
2018-11-14T02:00:42.145Z,100.0
2018-11-14T02:01:42.807Z,100.0
2018-11-14T02:02:43.472Z,100.0
2018-11-14T02:03:44.184Z,100.0
2018-11-14T02:04:44.847Z,100.0
2018-11-14T02:05:45.509Z,100.0
2018-11-14T02:06:46.190Z,100.0
2018-11-14T02:07:46.834Z,100.0
2018-11-14T02:08:47.498Z,100.0
2018-11-14T02:09:48.164Z,100.0
2018-11-14T02:10:48.827Z,100.0
2018-11-14T02:11:49.488Z,100.0
2018-11-14T02:12:50.151Z,100.0
2018-11-14T02:13:50.816Z,100.0
2018-11-14T02:14:51.478Z,100.0
2018-11-14T02:15:52.143Z,100.0
2018-11-14T02:16:52.803Z,100.0
2018-11-14T02:17:53.466Z,100.0
2018-11-14T02:18:54.132Z,100.0
2018-11-14T02:19:54.796Z,100.0
2018-11-14T02:20:55.459Z,100.0
2018-11-14T02:21:56.123Z,100.0
2018-11-14T02:22:56.785Z,100.0
2018-11-14T02:23:57.450Z,100.0
2018-11-14T02:24:58.112Z,100.0
2018-11-14T02:25:58.775Z,100.0
2018-11-14T02:26:59.437Z,100.0
2018-11-14T02:28:00.100Z,100.0
2018-11-14T02:29:00.764Z,100.0
2018-11-14T02:30:01.428Z,100.0
2018-11-14T02:31:02.093Z,100.0
2018-11-14T02:32:02.753Z,100.0
2018-11-14T02:33:03.416Z,100.0
2018-11-14T02:34:04.080Z,100.0
2018-11-14T02:35:04.771Z,100.0
2018-11-14T02:36:05.408Z,100.0
2018-11-14T02:37:06.066Z,100.0
2018-11-14T02:38:06.729Z,100.0
2018-11-14T02:39:07.403Z,100.0
2018-11-14T02:40:08.058Z,100.0
2018-11-14T02:41:08.718Z,100.0
2018-11-14T02:42:09.382Z,100.0
2018-11-14T02:43:10.044Z,100.0
2018-11-14T02:44:10.715Z,100.0
2018-11-14T02:45:11.370Z,100.0
2018-11-14T02:46:12.032Z,100.0
2018-11-14T02:47:12.699Z,100.0
2018-11-14T02:48:13.356Z,100.0
2018-11-14T02:49:14.019Z,100.0
2018-11-14T02:50:14.721Z,100.0
2018-11-14T02:51:15.382Z,100.0
2018-11-14T02:52:16.047Z,100.0
2018-11-14T02:53:16.711Z,100.0
2018-11-14T02:54:17.374Z,100.0
2018-11-14T02:55:18.078Z,100.0
2018-11-14T02:56:18.738Z,100.0
2018-11-14T02:57:19.400Z,100.0
2018-11-14T02:58:20.064Z,100.0
2018-11-14T02:59:20.724Z,100.0
2018-11-14T03:00:21.388Z,100.0
2018-11-14T03:01:22.050Z,100.0
2018-11-14T03:02:22.713Z,100.0
2018-11-14T03:03:23.377Z,100.0
2018-11-14T03:04:24.043Z,100.0
2018-11-14T03:05:24.705Z,100.0
2018-11-14T03:06:25.403Z,100.0
2018-11-14T03:07:26.069Z,100.0
2018-11-14T03:08:26.739Z,100.0
2018-11-14T03:09:27.433Z,100.0
2018-11-14T03:10:28.098Z,100.0
2018-11-14T03:11:28.798Z,100.0
2018-11-14T03:12:29.594Z,100.0
2018-11-14T03:13:30.124Z,100.0
2018-11-14T03:14:30.786Z,100.0
2018-11-14T03:15:31.448Z,100.0
2018-11-14T03:16:32.143Z,100.0
2018-11-14T03:17:32.814Z,100.0
2018-11-14T03:18:33.482Z,100.0
2018-11-14T03:19:34.148Z,100.0
2018-11-14T03:20:34.853Z,100.0
2018-11-14T03:21:35.520Z,100.0
2018-11-14T03:22:36.185Z,100.0
2018-11-14T03:23:36.849Z,100.0
2018-11-14T03:24:37.520Z,100.0
2018-11-14T03:25:38.223Z,100.0
2018-11-14T03:26:38.888Z,100.0
2018-11-14T03:27:39.554Z,100.0
2018-11-14T03:28:40.260Z,100.0
2018-11-14T03:29:40.925Z,100.0
2018-11-14T03:30:41.590Z,100.0
2018-11-14T03:31:42.260Z,100.0
2018-11-14T03:32:42.927Z,100.0
2018-11-14T03:33:43.584Z,100.0
2018-11-14T03:34:44.249Z,100.0
2018-11-14T03:35:44.914Z,100.0
2018-11-14T03:36:45.579Z,100.0
2018-11-14T03:37:46.245Z,100.0
2018-11-14T03:38:46.911Z,100.0
2018-11-14T03:39:47.576Z,100.0
2018-11-14T03:40:48.239Z,100.0
2018-11-14T03:41:48.904Z,100.0
2018-11-14T03:42:49.568Z,100.0
2018-11-14T03:43:50.233Z,100.0
2018-11-14T03:44:50.898Z,100.0
2018-11-14T03:45:51.563Z,100.0
2018-11-14T03:46:52.229Z,100.0
2018-11-14T03:47:52.896Z,100.0
2018-11-14T03:48:53.561Z,100.0
2018-11-14T03:49:54.234Z,100.0
2018-11-14T03:50:54.902Z,100.0
2018-11-14T03:51:55.565Z,100.0
2018-11-14T03:52:56.229Z,100.0
2018-11-14T03:53:56.895Z,100.0
2018-11-14T03:54:57.559Z,100.0
2018-11-14T03:55:58.223Z,100.0
2018-11-14T03:56:58.898Z,100.0
2018-11-14T03:57:59.554Z,100.0
2018-11-14T03:59:00.219Z,100.0
2018-11-14T04:00:00.884Z,100.0
2018-11-14T04:01:01.549Z,100.0
2018-11-14T04:02:02.215Z,100.0
2018-11-14T04:03:02.877Z,100.0
2018-11-14T04:04:03.543Z,100.0
2018-11-14T04:05:04.251Z,100.0
2018-11-14T04:06:04.925Z,100.0
2018-11-14T04:07:05.581Z,100.0
2018-11-14T04:08:06.251Z,100.0
2018-11-14T04:09:06.980Z,100.0
2018-11-14T04:10:07.625Z,100.0
2018-11-14T04:11:08.285Z,100.0
2018-11-14T04:12:08.949Z,100.0
2018-11-14T04:13:09.616Z,100.0
2018-11-14T04:14:10.279Z,100.0
2018-11-14T04:15:10.947Z,100.0
2018-11-14T04:16:11.609Z,100.0
2018-11-14T04:17:12.275Z,100.0
2018-11-14T04:18:12.942Z,100.0
2018-11-14T04:19:13.607Z,100.0
2018-11-14T04:20:14.312Z,100.0
2018-11-14T04:21:14.978Z,100.0
2018-11-14T04:22:15.643Z,100.0
2018-11-14T04:23:16.311Z,100.0
2018-11-14T04:24:16.973Z,100.0
2018-11-14T04:25:17.635Z,100.0
2018-11-14T04:26:18.339Z,100.0
2018-11-14T04:27:19.039Z,100.0
2018-11-14T04:28:19.701Z,100.0
2018-11-14T04:29:20.363Z,100.0
2018-11-14T04:30:21.029Z,100.0
2018-11-14T04:31:21.726Z,100.0
2018-11-14T04:32:22.389Z,100.0
2018-11-14T04:33:23.051Z,100.0
2018-11-14T04:34:23.721Z,100.0
2018-11-14T04:35:24.375Z,100.0
2018-11-14T04:36:25.050Z,100.0
2018-11-14T04:37:25.744Z,100.0
2018-11-14T04:38:26.447Z,100.0
2018-11-14T04:39:27.110Z,100.0
2018-11-14T04:40:27.774Z,100.0
2018-11-14T04:41:28.436Z,100.0
2018-11-14T04:42:29.099Z,100.0
2018-11-14T04:43:29.762Z,100.0
2018-11-14T04:44:30.423Z,100.0
2018-11-14T04:45:31.089Z,100.0
2018-11-14T04:46:31.747Z,100.0
2018-11-14T04:47:32.412Z,100.0
2018-11-14T04:48:33.076Z,100.0
2018-11-14T04:49:33.739Z,100.0
2018-11-14T04:50:34.402Z,100.0
2018-11-14T04:51:35.073Z,100.0
2018-11-14T04:52:35.727Z,100.0
2018-11-14T04:53:36.390Z,100.0
2018-11-14T04:54:37.053Z,100.0
2018-11-14T04:55:37.715Z,100.0
2018-11-14T04:56:38.380Z,100.0
2018-11-14T04:57:39.079Z,100.0
2018-11-14T04:58:39.740Z,100.0
2018-11-14T04:59:40.405Z,100.0
2018-11-14T05:00:41.070Z,100.0
2018-11-14T05:01:41.731Z,100.0
2018-11-14T05:02:42.446Z,100.0
2018-11-14T05:03:43.061Z,100.0
2018-11-14T05:04:43.720Z,100.0
2018-11-14T05:05:44.380Z,100.0
2018-11-14T05:06:45.042Z,100.0
2018-11-14T05:07:45.706Z,100.0
2018-11-14T05:08:46.367Z,100.0
2018-11-14T05:09:47.031Z,100.0
2018-11-14T05:10:47.696Z,100.0
2018-11-14T05:11:48.358Z,100.0
2018-11-14T05:12:49.036Z,100.0
2018-11-14T05:13:49.682Z,100.0
2018-11-14T05:14:50.345Z,100.0
2018-11-14T05:15:51.008Z,100.0
2018-11-14T05:16:51.670Z,100.0
2018-11-14T05:17:52.342Z,100.0
2018-11-14T05:18:53.035Z,100.0
2018-11-14T05:19:53.735Z,100.0
2018-11-14T05:20:54.396Z,100.0
2018-11-14T05:21:55.060Z,100.0
2018-11-14T05:22:55.726Z,100.0
2018-11-14T05:23:56.388Z,100.0
2018-11-14T05:24:57.088Z,100.0
2018-11-14T05:25:57.752Z,100.0
2018-11-14T05:26:58.417Z,100.0
2018-11-14T05:27:59.115Z,100.0
2018-11-14T05:28:59.778Z,100.0
2018-11-14T05:30:00.441Z,100.0
2018-11-14T05:31:01.104Z,100.0
2018-11-14T05:32:01.802Z,100.0
2018-11-14T05:33:02.459Z,100.0
2018-11-14T05:34:03.122Z,100.0
2018-11-14T05:35:03.784Z,100.0
2018-11-14T05:36:04.451Z,100.0
2018-11-14T05:37:05.150Z,100.0
2018-11-14T05:38:05.813Z,100.0
2018-11-14T05:39:06.475Z,100.0
2018-11-14T05:40:07.226Z,100.0
2018-11-14T05:41:07.802Z,100.0
2018-11-14T05:42:08.465Z,100.0
2018-11-14T05:43:09.140Z,100.0
2018-11-14T05:44:09.827Z,100.0
2018-11-14T05:45:10.500Z,100.0
2018-11-14T05:46:11.188Z,100.0
2018-11-14T05:47:11.855Z,100.0
2018-11-14T05:48:12.515Z,100.0
2018-11-14T05:49:13.177Z,100.0
2018-11-14T05:50:13.842Z,100.0
2018-11-14T05:51:14.504Z,100.0
2018-11-14T05:52:15.166Z,100.0
2018-11-14T05:53:15.830Z,100.0
2018-11-14T05:54:16.493Z,100.0
2018-11-14T05:55:17.194Z,100.0
2018-11-14T05:56:17.855Z,100.0
2018-11-14T05:57:18.519Z,100.0
2018-11-14T05:58:19.217Z,100.0
2018-11-14T05:59:19.879Z,100.0
2018-11-14T06:00:20.544Z,100.0
2018-11-14T06:01:21.266Z,100.0
2018-11-14T06:02:21.946Z,100.0
2018-11-14T06:03:22.625Z,100.0
2018-11-14T06:04:23.313Z,100.0
2018-11-14T06:05:23.977Z,100.0
2018-11-14T06:06:24.641Z,100.0
2018-11-14T06:07:25.355Z,100.0
2018-11-14T06:08:25.967Z,100.0
2018-11-14T06:09:26.628Z,100.0
2018-11-14T06:10:27.292Z,100.0
2018-11-14T06:11:27.975Z,100.0
2018-11-14T06:12:28.659Z,100.0
2018-11-14T06:13:29.324Z,100.0
2018-11-14T06:14:29.988Z,100.0
2018-11-14T06:15:30.651Z,100.0
2018-11-14T06:16:31.317Z,100.0
2018-11-14T06:17:32.017Z,100.0
2018-11-14T06:18:32.680Z,100.0
2018-11-14T06:19:33.343Z,100.0
2018-11-14T06:20:34.006Z,100.0
2018-11-14T06:21:34.676Z,100.0
2018-11-14T06:22:35.332Z,100.0
2018-11-14T06:23:36.056Z,100.0
2018-11-14T06:24:36.739Z,100.0
2018-11-14T06:25:37.411Z,100.0
2018-11-14T06:26:38.093Z,100.0
2018-11-14T06:27:38.760Z,100.0
2018-11-14T06:28:39.424Z,100.0
2018-11-14T06:29:40.146Z,100.0
2018-11-14T06:30:40.757Z,100.0
2018-11-14T06:31:41.424Z,100.0
2018-11-14T06:32:42.120Z,100.0
2018-11-14T06:33:42.788Z,100.0
2018-11-14T06:34:43.452Z,100.0
2018-11-14T06:35:44.116Z,100.0
2018-11-14T06:36:44.781Z,100.0
2018-11-14T06:37:45.485Z,100.0
2018-11-14T06:38:46.158Z,100.0
2018-11-14T06:39:46.813Z,100.0
2018-11-14T06:40:47.478Z,100.0
2018-11-14T06:41:48.209Z,100.0
2018-11-14T06:42:48.807Z,100.0
2018-11-14T06:43:49.473Z,100.0
2018-11-14T06:44:50.147Z,100.0
2018-11-14T06:45:50.804Z,100.0
2018-11-14T06:46:51.472Z,100.0
2018-11-14T06:47:52.142Z,100.0
2018-11-14T06:48:52.842Z,100.0
2018-11-14T06:49:53.561Z,100.0
2018-11-14T06:50:54.173Z,100.0
2018-11-14T06:51:54.839Z,100.0
2018-11-14T06:52:55.506Z,100.0
2018-11-14T06:53:56.215Z,100.0
2018-11-14T06:54:56.881Z,100.0
2018-11-14T06:55:57.618Z,100.0
2018-11-14T06:56:58.284Z,100.0
2018-11-14T06:57:58.950Z,100.0
2018-11-14T06:58:59.734Z,100.0
2018-11-14T07:00:00.286Z,100.0
2018-11-14T07:01:00.951Z,100.0
2018-11-14T07:02:01.616Z,100.0
2018-11-14T07:03:02.284Z,100.0
2018-11-14T07:04:02.951Z,100.0
2018-11-14T07:05:03.655Z,100.0
2018-11-14T07:06:04.479Z,100.0
2018-11-14T07:07:04.951Z,100.0
2018-11-14T07:08:05.628Z,100.0
2018-11-14T07:09:06.300Z,100.0
2018-11-14T07:10:06.974Z,100.0
2018-11-14T07:11:07.724Z,100.0
2018-11-14T07:12:08.382Z,100.0
2018-11-14T07:13:09.047Z,100.0
2018-11-14T07:14:09.716Z,100.0
2018-11-14T07:15:10.383Z,100.0
2018-11-14T07:16:11.049Z,100.0
2018-11-14T07:17:11.717Z,100.0
2018-11-14T07:18:12.385Z,100.0
2018-11-14T07:19:13.052Z,100.0
2018-11-14T07:20:13.719Z,100.0
2018-11-14T07:21:14.386Z,100.0
2018-11-14T07:22:15.056Z,100.0
2018-11-14T07:23:15.732Z,100.0
2018-11-14T07:24:16.441Z,100.0
2018-11-14T07:25:17.108Z,100.0
2018-11-14T07:26:17.774Z,100.0
2018-11-14T07:27:18.443Z,100.0
2018-11-14T07:28:19.149Z,100.0
2018-11-14T07:29:19.817Z,100.0
2018-11-14T07:30:20.492Z,100.0
2018-11-14T07:31:21.161Z,100.0
2018-11-14T07:32:21.827Z,100.0
2018-11-14T07:33:22.494Z,100.0
2018-11-14T07:34:23.161Z,100.0
2018-11-14T07:35:23.828Z,100.0
2018-11-14T07:36:24.538Z,100.0
2018-11-14T07:37:25.206Z,100.0
2018-11-14T07:38:25.909Z,100.0
2018-11-14T07:39:26.613Z,100.0
2018-11-14T07:40:27.282Z,100.0
2018-11-14T07:41:27.949Z,100.0
2018-11-14T07:42:28.618Z,100.0
2018-11-14T07:43:29.316Z,100.0
2018-11-14T07:44:29.952Z,100.0
2018-11-14T07:45:30.619Z,100.0
2018-11-14T07:46:31.288Z,100.0
2018-11-14T07:47:31.955Z,100.0
2018-11-14T07:48:32.620Z,100.0
2018-11-14T07:49:33.290Z,100.0
2018-11-14T07:50:33.966Z,100.0
2018-11-14T07:51:34.625Z,100.0
2018-11-14T07:52:35.294Z,100.0
2018-11-14T07:53:35.960Z,100.0
2018-11-14T07:54:36.640Z,100.0
2018-11-14T07:55:37.325Z,100.0
2018-11-14T07:56:37.992Z,100.0
2018-11-14T07:57:38.665Z,100.0
2018-11-14T07:58:39.325Z,100.0
2018-11-14T07:59:39.994Z,100.0
2018-11-14T08:00:40.705Z,100.0
2018-11-14T08:01:41.374Z,100.0
2018-11-14T08:02:42.057Z,100.0
2018-11-14T08:03:42.790Z,100.0
2018-11-14T08:04:43.469Z,100.0
2018-11-14T08:05:44.147Z,100.0
2018-11-14T08:06:44.852Z,100.0
2018-11-14T08:07:45.603Z,100.0
2018-11-14T08:08:46.234Z,100.0
2018-11-14T08:09:46.928Z,100.0
2018-11-14T08:10:47.613Z,100.0
2018-11-14T08:11:48.283Z,100.0
2018-11-14T08:12:48.966Z,100.0
2018-11-14T08:13:49.693Z,100.0
2018-11-14T08:14:50.403Z,100.0
2018-11-14T08:15:51.071Z,100.0
2018-11-14T08:16:51.778Z,100.0
2018-11-14T08:17:52.445Z,100.0
2018-11-14T08:18:53.178Z,100.0
2018-11-14T08:19:53.780Z,100.0
2018-11-14T08:20:54.448Z,100.0
2018-11-14T08:21:55.154Z,100.0
2018-11-14T08:22:55.822Z,100.0
2018-11-14T08:23:56.491Z,100.0
2018-11-14T08:24:57.184Z,100.0
2018-11-14T08:25:57.825Z,100.0
2018-11-14T08:26:58.493Z,100.0
2018-11-14T08:27:59.160Z,100.0
2018-11-14T08:28:59.836Z,100.0
2018-11-14T08:30:00.494Z,100.0
2018-11-14T08:31:01.165Z,100.0
2018-11-14T08:32:01.834Z,100.0
2018-11-14T08:33:02.552Z,100.0
2018-11-14T08:34:03.217Z,100.0
2018-11-14T08:35:03.886Z,100.0
2018-11-14T08:36:04.562Z,100.0
2018-11-14T08:37:05.264Z,100.0
2018-11-14T08:38:05.934Z,100.0
2018-11-14T08:39:06.687Z,100.0
2018-11-14T08:40:07.335Z,100.0
2018-11-14T08:41:08.008Z,100.0
2018-11-14T08:42:08.711Z,100.0
2018-11-14T08:43:09.380Z,100.0
2018-11-14T08:44:10.087Z,100.0
2018-11-14T08:45:10.757Z,100.0
2018-11-14T08:46:11.426Z,100.0
2018-11-14T08:47:12.144Z,100.0
2018-11-14T08:48:12.888Z,100.0
2018-11-14T08:49:13.556Z,100.0
2018-11-14T08:50:14.281Z,100.0
2018-11-14T08:51:14.889Z,100.0
2018-11-14T08:52:15.556Z,100.0
2018-11-14T08:53:16.226Z,100.0
2018-11-14T08:54:16.894Z,100.0
2018-11-14T08:55:17.567Z,100.0
2018-11-14T08:56:18.229Z,100.0
2018-11-14T08:57:18.936Z,100.0
2018-11-14T08:58:19.612Z,100.0
2018-11-14T08:59:20.272Z,100.0
2018-11-14T09:00:20.942Z,100.0
2018-11-14T09:01:21.618Z,100.0
2018-11-14T09:02:22.318Z,100.0
2018-11-14T09:03:22.988Z,100.0
2018-11-14T09:04:23.655Z,100.0
2018-11-14T09:05:24.326Z,100.0
2018-11-14T09:06:25.088Z,100.0
2018-11-14T09:07:25.658Z,100.0
2018-11-14T09:08:26.329Z,100.0
2018-11-14T09:09:26.996Z,100.0
2018-11-14T09:10:27.665Z,100.0
2018-11-14T09:11:28.498Z,100.0
2018-11-14T09:12:29.069Z,100.0
2018-11-14T09:13:29.678Z,100.0
2018-11-14T09:14:30.373Z,100.0
2018-11-14T09:15:31.016Z,100.0
2018-11-14T09:16:31.700Z,100.0
2018-11-14T09:17:32.401Z,100.0
2018-11-14T09:18:33.125Z,100.0
2018-11-14T09:19:33.729Z,100.0
2018-11-14T09:20:34.397Z,100.0
2018-11-14T09:21:35.065Z,100.0
2018-11-14T09:22:35.734Z,100.0
2018-11-14T09:23:36.404Z,100.0
2018-11-14T09:24:37.110Z,100.0
2018-11-14T09:25:37.741Z,100.0
2018-11-14T09:26:38.454Z,99.7
2018-11-14T09:27:39.115Z,99.9
2018-11-14T09:28:39.821Z,99.6
2018-11-14T09:29:40.519Z,99.1
2018-11-14T09:30:41.158Z,97.8
2018-11-14T09:31:41.858Z,97.3
2018-11-14T09:32:42.534Z,97.6
2018-11-14T09:33:43.203Z,96.9
2018-11-14T09:34:43.898Z,96.8
2018-11-14T09:35:44.550Z,96.9
2018-11-14T09:36:45.210Z,96.9
2018-11-14T09:37:45.879Z,96.8
2018-11-14T09:38:46.613Z,96.5
2018-11-14T09:39:47.304Z,96.0
2018-11-14T09:40:48.005Z,94.9
2018-11-14T09:41:48.638Z,95.2
2018-11-14T09:42:49.346Z,95.2
2018-11-14T09:43:50.040Z,95.6
2018-11-14T09:44:50.685Z,94.9
2018-11-14T09:45:51.392Z,95.4
2018-11-14T09:46:52.102Z,95.0
2018-11-14T09:47:52.772Z,94.7
2018-11-14T09:48:53.442Z,94.6
2018-11-14T09:49:54.111Z,94.6
2018-11-14T09:50:54.787Z,94.2
2018-11-14T09:51:55.449Z,94.3
2018-11-14T09:52:56.162Z,93.6
2018-11-14T09:53:56.788Z,93.6
2018-11-14T09:54:57.495Z,93.0
2018-11-14T09:55:58.164Z,92.4
2018-11-14T09:56:58.920Z,91.7
2018-11-14T09:57:59.541Z,91.4
2018-11-14T09:59:00.245Z,91.4
2018-11-14T10:00:00.916Z,91.6
2018-11-14T10:01:01.583Z,91.7
2018-11-14T10:02:02.251Z,92.2
2018-11-14T10:03:02.943Z,91.8
2018-11-14T10:04:03.594Z,91.3
2018-11-14T10:05:04.270Z,91.7
2018-11-14T10:06:04.962Z,91.7
2018-11-14T10:07:05.598Z,91.5
2018-11-14T10:08:06.346Z,91.7
2018-11-14T10:09:06.943Z,91.3
2018-11-14T10:10:07.647Z,90.9
2018-11-14T10:11:08.354Z,90.9
2018-11-14T10:12:09.027Z,91.0
2018-11-14T10:13:09.695Z,90.5
2018-11-14T10:14:10.405Z,90.6
2018-11-14T10:15:11.073Z,90.3
2018-11-14T10:16:11.753Z,89.9
2018-11-14T10:17:12.413Z,90.0
2018-11-14T10:18:13.081Z,90.0
2018-11-14T10:19:13.752Z,89.9
2018-11-14T10:20:14.419Z,89.5
2018-11-14T10:21:15.160Z,89.4
2018-11-14T10:22:15.758Z,89.3
2018-11-14T10:23:16.427Z,89.7
2018-11-14T10:24:17.098Z,89.4
2018-11-14T10:25:17.767Z,89.3
2018-11-14T10:26:18.438Z,88.6
2018-11-14T10:27:19.184Z,88.6
2018-11-14T10:28:19.855Z,88.5
2018-11-14T10:29:20.536Z,88.7
2018-11-14T10:30:21.272Z,88.1
2018-11-14T10:31:21.923Z,87.4
2018-11-14T10:32:22.566Z,87.5
2018-11-14T10:33:23.236Z,87.5
2018-11-14T10:34:23.905Z,86.9
2018-11-14T10:35:24.574Z,86.9
2018-11-14T10:36:25.253Z,86.9
2018-11-14T10:37:25.917Z,87.0
2018-11-14T10:38:26.586Z,87.1
2018-11-14T10:39:27.256Z,87.3
2018-11-14T10:40:27.928Z,87.2
2018-11-14T10:41:28.597Z,86.9
2018-11-14T10:42:29.268Z,86.7
2018-11-14T10:43:29.944Z,86.7
2018-11-14T10:44:30.646Z,86.1
2018-11-14T10:45:31.316Z,85.4
2018-11-14T10:46:31.995Z,85.3
2018-11-14T10:47:32.656Z,85.8
2018-11-14T10:48:33.327Z,85.4
2018-11-14T10:49:34.020Z,85.5
2018-11-14T10:50:34.707Z,85.5
2018-11-14T10:51:35.377Z,85.5
2018-11-14T10:52:36.049Z,86.0
2018-11-14T10:53:36.758Z,86.0
2018-11-14T10:54:37.429Z,85.6
2018-11-14T10:55:38.101Z,85.5
2018-11-14T10:56:38.774Z,84.9
2018-11-14T10:57:39.449Z,85.2
2018-11-14T10:58:40.119Z,85.5
2018-11-14T10:59:40.788Z,85.6
2018-11-14T11:00:41.508Z,85.7
2018-11-14T11:01:42.182Z,84.6
2018-11-14T11:02:42.848Z,83.6
2018-11-14T11:03:43.519Z,83.3
2018-11-14T11:04:44.190Z,83.1
2018-11-14T11:05:44.910Z,83.1
2018-11-14T11:06:45.614Z,83.2
2018-11-14T11:07:46.348Z,82.9
2018-11-14T11:08:47.016Z,82.5
2018-11-14T11:09:47.634Z,82.7
2018-11-14T11:10:48.308Z,83.2
2018-11-14T11:11:48.979Z,83.6
2018-11-14T11:12:49.649Z,83.7
2018-11-14T11:13:50.378Z,84.3
2018-11-14T11:14:51.031Z,84.2
2018-11-14T11:15:51.702Z,84.3
2018-11-14T11:16:52.372Z,84.7
2018-11-14T11:17:53.042Z,84.3
2018-11-14T11:18:53.721Z,83.9
2018-11-14T11:19:54.385Z,82.7
2018-11-14T11:20:55.055Z,82.7
2018-11-14T11:21:55.727Z,82.6
2018-11-14T11:22:56.395Z,82.7
2018-11-14T11:23:57.066Z,82.7
2018-11-14T11:24:57.739Z,82.1
2018-11-14T11:25:58.614Z,82.1
2018-11-14T11:26:59.305Z,81.8
2018-11-14T11:27:59.998Z,82.7
2018-11-14T11:29:00.667Z,82.9
2018-11-14T11:30:01.339Z,82.8
2018-11-14T11:31:02.022Z,82.7
2018-11-14T11:32:02.788Z,81.9
2018-11-14T11:33:03.392Z,81.5
2018-11-14T11:34:04.064Z,81.1
2018-11-14T11:35:04.781Z,80.6
2018-11-14T11:36:05.469Z,80.8
2018-11-14T11:37:06.115Z,81.0
2018-11-14T11:38:06.791Z,81.7
2018-11-14T11:39:07.458Z,81.4
2018-11-14T11:40:08.126Z,81.5
2018-11-14T11:41:08.798Z,81.5
2018-11-14T11:42:09.470Z,81.7
2018-11-14T11:43:10.140Z,82.2
2018-11-14T11:44:10.835Z,81.9
2018-11-14T11:45:11.481Z,82.2
2018-11-14T11:46:12.170Z,82.0
2018-11-14T11:47:12.865Z,82.1
2018-11-14T11:48:13.573Z,82.0
2018-11-14T11:49:14.245Z,82.0
2018-11-14T11:50:14.917Z,82.0
2018-11-14T11:51:15.624Z,81.8
2018-11-14T11:52:16.302Z,81.7
2018-11-14T11:53:17.010Z,81.8
2018-11-14T11:54:17.680Z,81.7
2018-11-14T11:55:18.354Z,81.3
2018-11-14T11:56:19.022Z,81.4
2018-11-14T11:57:19.704Z,81.0
2018-11-14T11:58:20.405Z,80.8
2018-11-14T11:59:21.139Z,80.6
2018-11-14T12:00:21.984Z,80.7
2018-11-14T12:01:22.490Z,80.6
2018-11-14T12:02:23.240Z,80.2
2018-11-14T12:03:23.883Z,80.1
2018-11-14T12:04:24.573Z,80.3
2018-11-14T12:05:25.283Z,80.7
2018-11-14T12:06:26.001Z,80.7
2018-11-14T12:07:26.664Z,80.6
2018-11-14T12:08:27.362Z,80.5
2018-11-14T12:09:28.035Z,80.6
2018-11-14T12:10:28.776Z,80.5
2018-11-14T12:11:29.378Z,79.8
2018-11-14T12:12:30.048Z,79.3
2018-11-14T12:13:30.732Z,78.9
2018-11-14T12:14:31.393Z,79.3
2018-11-14T12:15:32.065Z,79.3
2018-11-14T12:16:32.736Z,79.5
2018-11-14T12:17:33.425Z,79.2
2018-11-14T12:18:34.085Z,79.3
2018-11-14T12:19:34.783Z,78.9
2018-11-14T12:20:35.466Z,79.1
2018-11-14T12:21:36.138Z,78.4
2018-11-14T12:22:36.848Z,78.3
2018-11-14T12:23:37.552Z,78.3
2018-11-14T12:24:38.196Z,78.3
2018-11-14T12:25:38.898Z,78.3
2018-11-14T12:26:39.573Z,78.1
2018-11-14T12:27:40.334Z,78.2
2018-11-14T12:28:40.916Z,78.3
2018-11-14T12:29:41.605Z,78.3
2018-11-14T12:30:42.445Z,78.4
2018-11-14T12:31:42.931Z,78.1
2018-11-14T12:32:43.639Z,78.4
2018-11-14T12:33:44.334Z,78.4
2018-11-14T12:34:45.039Z,78.6
2018-11-14T12:35:45.734Z,78.7
2018-11-14T12:36:46.331Z,78.7
2018-11-14T12:37:47.000Z,77.8
2018-11-14T12:38:47.686Z,78.4
2018-11-14T12:39:48.479Z,77.4
2018-11-14T12:40:49.021Z,77.6
2018-11-14T12:41:49.731Z,77.6
2018-11-14T12:42:50.357Z,77.5
2018-11-14T12:43:51.031Z,78.3
2018-11-14T12:44:51.716Z,78.1
2018-11-14T12:45:52.374Z,78.4
2018-11-14T12:46:53.046Z,78.2
2018-11-14T12:47:53.755Z,78.6
2018-11-14T12:48:54.430Z,78.8
2018-11-14T12:49:55.102Z,78.8
2018-11-14T12:50:55.774Z,78.8
2018-11-14T12:51:56.446Z,78.4
2018-11-14T12:52:57.121Z,79.3
2018-11-14T12:53:57.794Z,78.8
2018-11-14T12:54:58.465Z,79.2
2018-11-14T12:55:59.140Z,79.0
2018-11-14T12:56:59.806Z,79.2
2018-11-14T12:58:00.479Z,79.4
2018-11-14T12:59:01.151Z,79.3
2018-11-14T13:00:01.937Z,79.9
2018-11-14T13:01:02.529Z,79.9
2018-11-14T13:02:03.203Z,80.2
2018-11-14T13:03:03.876Z,80.3
2018-11-14T13:04:04.553Z,80.6
2018-11-14T13:05:05.225Z,81.1
2018-11-14T13:06:05.931Z,80.6
2018-11-14T13:07:06.633Z,80.7
2018-11-14T13:08:07.325Z,80.7
2018-11-14T13:09:07.988Z,80.7
2018-11-14T13:10:08.669Z,80.7
2018-11-14T13:11:09.369Z,80.6
2018-11-14T13:12:10.052Z,80.1